Time,TemperatureF,DewpointF,PressureIn,WindDirection,WindDirectionDegrees,WindSpeedMPH,WindSpeedGustMPH,Humidity,HourlyPrecipIn,Conditions,Clouds,dailyrainin,SoftwareType,DateUTC
2013-04-01 04:12:00,40.0,39.0,29.64,West,266,0.0,0.0,97,0.00,,,0.12,,2013-04-01 08:12:00,
2013-04-01 04:22:00,40.0,39.0,29.64,WSW,243,0.0,0.0,97,0.00,,,0.12,,2013-04-01 08:22:00,
2013-04-01 04:32:00,40.0,39.0,29.65,West,271,1.0,2.0,97,0.00,,,0.12,,2013-04-01 08:32:00,
2013-04-01 04:43:00,40.0,39.0,29.65,West,271,1.0,2.0,97,0.00,,,0.12,,2013-04-01 08:43:00,
2013-04-01 04:53:00,41.0,40.0,29.65,SSW,203,2.0,4.0,97,0.00,,,0.12,,2013-04-01 08:53:00,
2013-04-01 05:02:00,41.0,40.0,29.66,WSW,237,2.0,5.0,97,0.00,,,0.12,,2013-04-01 09:02:00,
2013-04-01 05:12:00,41.0,40.0,29.66,WSW,237,2.0,5.0,97,0.00,,,0.12,,2013-04-01 09:12:00,
2013-04-01 05:23:00,41.0,40.0,29.66,WSW,242,2.0,4.0,97,0.00,,,0.12,,2013-04-01 09:23:00,
2013-04-01 05:33:00,41.0,40.0,29.66,West,276,1.0,5.0,97,0.00,,,0.12,,2013-04-01 09:33:00,
2013-04-01 05:43:00,41.0,40.0,29.66,West,276,1.0,5.0,97,0.00,,,0.12,,2013-04-01 09:43:00,
2013-04-01 05:53:00,41.0,40.0,29.67,SW,236,1.0,2.0,96,0.00,,,0.12,,2013-04-01 09:53:00,
2013-04-01 06:03:00,41.0,40.0,29.67,WSW,257,1.0,3.0,96,0.00,,,0.12,,2013-04-01 10:03:00,
2013-04-01 06:13:00,41.0,40.0,29.67,WSW,257,1.0,3.0,96,0.00,,,0.12,,2013-04-01 10:13:00,
2013-04-01 06:23:00,40.0,39.0,29.67,WSW,250,0.0,1.0,96,0.00,,,0.12,,2013-04-01 10:23:00,
2013-04-01 06:33:00,40.0,39.0,29.68,WSW,245,1.0,2.0,96,0.00,,,0.12,,2013-04-01 10:33:00,
2013-04-01 06:42:00,40.0,39.0,29.68,WSW,245,1.0,2.0,96,0.00,,,0.12,,2013-04-01 10:42:00,
2013-04-01 06:53:00,40.0,39.0,29.68,WSW,253,0.0,3.0,96,0.00,,,0.12,,2013-04-01 10:53:00,
2013-04-01 07:03:00,41.0,40.0,29.67,WNW,288,2.0,4.0,96,0.00,,,0.12,,2013-04-01 11:03:00,
2013-04-01 07:13:00,41.0,40.0,29.67,WNW,288,2.0,4.0,96,0.00,,,0.12,,2013-04-01 11:13:00,
2013-04-01 07:23:00,41.0,40.0,29.66,West,271,1.0,2.0,96,0.00,,,0.12,,2013-04-01 11:23:00,
2013-04-01 07:33:00,41.0,40.0,29.66,West,270,0.0,1.0,96,0.00,,,0.12,,2013-04-01 11:33:00,
2013-04-01 07:42:00,41.0,40.0,29.66,West,270,0.0,1.0,96,0.00,,,0.12,,2013-04-01 11:42:00,
2013-04-01 07:53:00,41.0,40.0,29.66,West,281,1.0,3.0,96,0.00,,,0.12,,2013-04-01 11:53:00,
2013-04-01 08:03:00,42.0,41.0,29.66,West,271,1.0,5.0,95,0.00,,,0.12,,2013-04-01 12:03:00,
2013-04-01 08:12:00,42.0,41.0,29.66,West,271,1.0,5.0,95,0.00,,,0.12,,2013-04-01 12:12:00,
2013-04-01 08:23:00,43.0,41.0,29.66,ESE,106,0.0,5.0,93,0.00,,,0.12,,2013-04-01 12:23:00,
2013-04-01 08:32:00,44.0,42.0,29.66,WSW,239,1.0,2.0,93,0.00,,,0.12,,2013-04-01 12:32:00,
2013-04-01 08:42:00,44.0,42.0,29.66,WSW,239,1.0,2.0,93,0.00,,,0.12,,2013-04-01 12:42:00,
2013-04-01 08:53:00,44.0,42.0,29.66,WSW,245,1.0,3.0,92,0.00,,,0.12,,2013-04-01 12:53:00,
2013-04-01 09:03:00,44.0,42.0,29.66,WSW,238,2.0,3.0,92,0.00,,,0.12,,2013-04-01 13:03:00,
2013-04-01 09:12:00,44.0,42.0,29.66,WSW,238,2.0,3.0,92,0.00,,,0.12,,2013-04-01 13:12:00,
2013-04-01 09:22:00,45.0,43.0,29.65,SW,228,1.0,3.0,91,0.00,,,0.12,,2013-04-01 13:22:00,
2013-04-01 09:32:00,45.0,42.0,29.65,WNW,291,2.0,4.0,90,0.00,,,0.12,,2013-04-01 13:32:00,
2013-04-01 09:42:00,45.0,42.0,29.65,WNW,291,2.0,4.0,90,0.00,,,0.12,,2013-04-01 13:42:00,
2013-04-01 09:53:00,46.0,43.0,29.65,WSW,248,1.0,5.0,88,0.00,,,0.12,,2013-04-01 13:53:00,
2013-04-01 10:04:00,48.0,44.0,29.65,SW,218,3.0,7.0,86,0.00,,,0.12,,2013-04-01 14:04:00,
2013-04-01 10:12:00,48.0,44.0,29.65,SW,218,3.0,7.0,86,0.00,,,0.12,,2013-04-01 14:12:00,
2013-04-01 10:22:00,49.0,44.0,29.64,WNW,290,2.0,6.0,83,0.00,,,0.12,,2013-04-01 14:22:00,
2013-04-01 10:33:00,50.0,44.0,29.64,WSW,250,3.0,11.0,81,0.00,,,0.12,,2013-04-01 14:33:00,
2013-04-01 10:42:00,50.0,44.0,29.64,WSW,250,3.0,11.0,81,0.00,,,0.12,,2013-04-01 14:42:00,
2013-04-01 10:53:00,50.0,44.0,29.63,West,267,3.0,9.0,79,0.00,,,0.12,,2013-04-01 14:53:00,
2013-04-01 11:03:00,51.0,44.0,29.63,South,190,5.0,12.0,77,0.00,,,0.12,,2013-04-01 15:03:00,
2013-04-01 11:13:00,51.0,44.0,29.63,South,190,5.0,12.0,77,0.00,,,0.12,,2013-04-01 15:13:00,
2013-04-01 11:22:00,52.0,44.0,29.62,WSW,252,6.0,12.0,74,0.00,,,0.12,,2013-04-01 15:22:00,
2013-04-01 11:34:00,53.0,45.0,29.62,WSW,250,5.0,14.0,73,0.00,,,0.12,,2013-04-01 15:34:00,
2013-04-01 11:43:00,53.0,45.0,29.62,WSW,250,5.0,14.0,73,0.00,,,0.12,,2013-04-01 15:43:00,
2013-04-01 11:54:00,54.0,45.0,29.61,West,262,4.0,11.0,71,0.00,,,0.12,,2013-04-01 15:54:00,
2013-04-01 12:03:00,54.0,44.0,29.60,SW,230,5.0,11.0,69,0.00,,,0.12,,2013-04-01 16:03:00,
2013-04-01 12:13:00,54.0,44.0,29.60,SW,230,5.0,11.0,69,0.00,,,0.12,,2013-04-01 16:13:00,
2013-04-01 12:23:00,54.0,43.0,29.60,WSW,257,6.0,11.0,67,0.00,,,0.12,,2013-04-01 16:23:00,
2013-04-01 12:33:00,54.0,43.0,29.60,NW,311,5.0,14.0,66,0.00,,,0.12,,2013-04-01 16:33:00,
2013-04-01 12:43:00,54.0,43.0,29.60,NW,311,5.0,14.0,66,0.00,,,0.12,,2013-04-01 16:43:00,
2013-04-01 12:53:00,55.0,43.0,29.60,WSW,243,5.0,14.0,63,0.00,,,0.12,,2013-04-01 16:53:00,
2013-04-01 13:03:00,56.0,42.0,29.60,WSW,243,4.0,13.0,60,0.00,,,0.12,,2013-04-01 17:03:00,
2013-04-01 13:13:00,56.0,42.0,29.60,WSW,243,4.0,13.0,60,0.00,,,0.12,,2013-04-01 17:13:00,
2013-04-01 13:23:00,55.0,41.0,29.59,WNW,298,10.0,19.0,60,0.00,,,0.12,,2013-04-01 17:23:00,
2013-04-01 13:32:00,55.0,41.0,29.59,WNW,298,10.0,19.0,60,0.00,,,0.12,,2013-04-01 17:32:00,
2013-04-01 13:42:00,55.0,41.0,29.59,WNW,298,10.0,19.0,60,0.00,,,0.12,,2013-04-01 17:42:00,
2013-04-01 13:53:00,58.0,42.0,29.58,WSW,239,5.0,10.0,56,0.00,,,0.12,,2013-04-01 17:53:00,
2013-04-01 14:03:00,56.0,41.0,29.58,WNW,293,10.0,17.0,58,0.00,,,0.12,,2013-04-01 18:03:00,
2013-04-01 14:12:00,56.0,41.0,29.58,WNW,293,10.0,17.0,58,0.00,,,0.12,,2013-04-01 18:12:00,
2013-04-01 14:22:00,51.0,44.0,29.58,WSW,256,3.0,13.0,76,0.00,,,0.12,,2013-04-01 18:22:00,
2013-04-01 14:33:00,52.0,44.0,29.58,WSW,250,5.0,10.0,75,0.00,,,0.12,,2013-04-01 18:33:00,
2013-04-01 14:43:00,52.0,44.0,29.58,WSW,250,5.0,10.0,75,0.00,,,0.12,,2013-04-01 18:43:00,
2013-04-01 14:53:00,53.0,43.0,29.59,WNW,290,7.0,19.0,68,0.00,,,0.12,,2013-04-01 18:53:00,
2013-04-01 15:03:00,53.0,42.0,29.59,WNW,285,8.0,26.0,65,0.00,,,0.12,,2013-04-01 19:03:00,
2013-04-01 15:13:00,53.0,42.0,29.59,WNW,285,8.0,26.0,65,0.00,,,0.12,,2013-04-01 19:13:00,
2013-04-01 15:23:00,51.0,40.0,29.60,WNW,293,6.0,21.0,67,0.00,,,0.12,,2013-04-01 19:23:00,
2013-04-01 15:32:00,50.0,38.0,29.61,North,1,10.0,28.0,64,0.00,,,0.12,,2013-04-01 19:32:00,
2013-04-01 15:42:00,50.0,38.0,29.61,North,1,10.0,28.0,64,0.00,,,0.12,,2013-04-01 19:42:00,
2013-04-01 15:53:00,48.0,40.0,29.62,WNW,287,9.0,21.0,73,0.00,,,0.12,,2013-04-01 19:53:00,
2013-04-01 16:02:00,46.0,38.0,29.64,North,5,8.0,19.0,73,0.00,,,0.12,,2013-04-01 20:02:00,
2013-04-01 16:13:00,46.0,38.0,29.64,North,5,8.0,19.0,73,0.00,,,0.12,,2013-04-01 20:13:00,
2013-04-01 16:23:00,39.0,34.0,29.66,NW,321,4.0,13.0,83,0.00,,,0.12,,2013-04-01 20:23:00,
2013-04-01 16:33:00,38.0,35.0,29.67,WNW,298,3.0,10.0,89,0.01,,,0.13,,2013-04-01 20:33:00,
2013-04-01 16:43:00,38.0,35.0,29.67,WNW,298,3.0,10.0,89,0.01,,,0.13,,2013-04-01 20:43:00,
2013-04-01 16:52:00,37.0,35.0,29.68,WNW,298,2.0,12.0,91,0.01,,,0.13,,2013-04-01 20:52:00,
2013-04-01 17:02:00,37.0,35.0,29.69,NW,311,3.0,9.0,92,0.01,,,0.13,,2013-04-01 21:02:00,
2013-04-01 17:12:00,37.0,35.0,29.69,NW,311,3.0,9.0,92,0.01,,,0.13,,2013-04-01 21:12:00,
2013-04-01 17:23:00,36.0,34.0,29.69,WNW,302,3.0,11.0,92,0.01,,,0.13,,2013-04-01 21:23:00,
2013-04-01 17:33:00,36.0,34.0,29.69,WNW,302,3.0,11.0,92,0.01,,,0.13,,2013-04-01 21:33:00,
2013-04-01 17:43:00,36.0,34.0,29.69,WNW,302,3.0,11.0,92,0.01,,,0.13,,2013-04-01 21:43:00,
2013-04-01 17:52:00,36.0,34.0,29.69,WNW,302,3.0,11.0,92,0.01,,,0.13,,2013-04-01 21:52:00,